Time;durP1;ratioP1;P1;durP2;ratioP2;P2;SDS_P1;SDS_P2;PMS_P1;PMS_P2;Temp;Humidity;BMP_temperature;BMP_pressure;BME280_temperature;BME280_humidity;BME280_pressure;Samples;Min_cycle;Max_cycle;Signal;HPM_P1;HPM_P2
2022/02/27 00:01:20;;;;;;;11.98;4.32;;;;;;;8.47;45.07;102332.13;5105718;28;20039;-57
2022/02/27 00:03:46;;;;;;;6.03;4.43;;;;;;;8.48;45.01;102331.22;5105941;28;20040;-58
2022/02/27 00:06:13;;;;;;;7.68;4.10;;;;;;;8.49;45.00;102327.72;5109631;28;20099;-58
2022/02/27 00:08:40;;;;;;;8.13;4.20;;;;;;;8.49;44.81;102325.13;5111564;28;20040;-58
2022/02/27 00:11:09;;;;;;;8.98;4.30;;;;;;;8.49;44.72;102326.84;5110616;28;20499;-58
2022/02/27 00:13:35;;;;;;;7.03;4.38;;;;;;;8.47;44.50;102332.13;5111348;28;20545;-58
2022/02/27 00:16:02;;;;;;;9.93;4.03;;;;;;;8.45;44.38;102325.16;5110540;28;20051;-58
2022/02/27 00:18:29;;;;;;;5.35;3.97;;;;;;;8.43;44.51;102327.81;5111584;28;20385;-59
2022/02/27 00:20:57;;;;;;;5.80;3.67;;;;;;;8.44;44.25;102323.44;5110633;28;20449;-57
2022/02/27 00:23:23;;;;;;;6.03;3.90;;;;;;;8.43;44.34;102326.94;5111140;28;20044;-58
2022/02/27 00:25:50;;;;;;;5.60;3.95;;;;;;;8.28;44.66;102323.78;5111235;28;20052;-58
2022/02/27 00:28:17;;;;;;;5.90;3.70;;;;;;;8.17;44.77;102333.59;5110589;28;20513;-58
2022/02/27 00:30:43;;;;;;;13.43;5.35;;;;;;;8.11;45.04;102328.50;5111381;28;20044;-58
2022/02/27 00:33:10;;;;;;;7.95;4.28;;;;;;;8.07;44.85;102342.53;5110554;28;20101;-57
2022/02/27 00:35:37;;;;;;;6.25;4.25;;;;;;;8.01;45.03;102336.53;5111352;28;20040;-58
2022/02/27 00:38:03;;;;;;;6.03;3.78;;;;;;;7.91;45.24;102328.91;5109223;28;20441;-58
2022/02/27 00:40:30;;;;;;;10.23;3.92;;;;;;;7.79;45.40;102343.94;5111473;28;20039;-58
2022/02/27 00:42:56;;;;;;;7.53;3.83;;;;;;;7.78;45.50;102337.00;5111232;28;20101;-58
2022/02/27 00:45:23;;;;;;;5.82;3.63;;;;;;;7.79;45.21;102341.31;5096766;28;20105;-58
2022/02/27 00:47:50;;;;;;;7.47;5.03;;;;;;;7.76;45.37;102336.16;5112119;28;20226;-58
2022/02/27 00:50:16;;;;;;;7.50;3.80;;;;;;;7.74;45.29;102335.31;5115840;28;20101;-58
2022/02/27 00:52:43;;;;;;;6.65;3.80;;;;;;;7.72;45.32;102334.50;5115309;28;20085;-57
2022/02/27 00:55:10;;;;;;;5.93;3.47;;;;;;;7.72;45.14;102337.13;5114546;27;20043;-58
2022/02/27 00:57:37;;;;;;;6.53;3.15;;;;;;;7.70;45.29;102338.88;5115254;28;20492;-58
2022/02/27 01:00:06;;;;;;;5.47;3.40;;;;;;;7.74;45.01;102332.72;5115478;28;20050;-57
2022/02/27 01:02:32;;;;;;;4.97;3.35;;;;;;;7.72;45.04;102324.06;5115359;28;20467;-58
2022/02/27 01:04:59;;;;;;;5.57;3.22;;;;;;;7.71;44.94;102324.06;5115098;28;20048;-57
2022/02/27 01:07:27;;;;;;;7.40;3.10;;;;;;;7.75;44.52;102325.75;5115355;28;20101;-58
2022/02/27 01:09:53;;;;;;;4.53;2.75;;;;;;;7.72;44.72;102328.41;5115239;28;20040;-59
2022/02/27 01:12:20;;;;;;;4.65;2.85;;;;;;;7.71;44.51;102330.16;5113131;28;20545;-57
2022/02/27 01:14:47;;;;;;;7.45;3.15;;;;;;;7.72;44.32;102331.00;5115161;28;20047;-57
2022/02/27 01:17:14;;;;;;;5.97;2.78;;;;;;;7.70;44.32;102320.59;5115281;28;20100;-57
2022/02/27 01:19:40;;;;;;;5.00;3.53;;;;;;;7.67;44.43;102323.28;5114960;28;20043;-58
2022/02/27 01:22:07;;;;;;;5.47;3.00;;;;;;;7.64;44.32;102320.72;5115050;28;20109;-58
2022/02/27 01:24:34;;;;;;;5.88;2.90;;;;;;;7.60;44.37;102316.44;5114564;28;20484;-58
2022/02/27 01:27:00;;;;;;;4.05;2.85;;;;;;;7.59;44.41;102312.09;5114820;28;20116;-58
2022/02/27 01:29:27;;;;;;;4.18;2.67;;;;;;;7.58;44.44;102316.47;5100856;28;20052;-58
2022/02/27 01:31:53;;;;;;;4.22;2.88;;;;;;;7.58;44.27;102311.25;5114673;28;20450;-58
2022/02/27 01:34:20;;;;;;;4.47;2.80;;;;;;;7.54;44.28;102306.94;5114777;28;20432;-57
2022/02/27 01:36:47;;;;;;;4.78;2.92;;;;;;;7.54;44.31;102311.31;5114626;28;20047;-58
2022/02/27 01:39:13;;;;;;;3.90;2.58;;;;;;;7.50;44.35;102307.91;5114627;28;20075;-58
2022/02/27 01:41:40;;;;;;;5.53;2.30;;;;;;;7.47;44.39;102306.22;5114474;28;20104;-59
2022/02/27 01:44:07;;;;;;;5.40;2.40;;;;;;;7.48;44.33;102305.31;5110251;28;20040;-58
2022/02/27 01:46:35;;;;;;;4.68;2.08;;;;;;;7.46;44.26;102306.25;5103833;28;20048;-58
2022/02/27 01:49:02;;;;;;;4.50;2.50;;;;;;;7.44;44.13;102298.44;5114515;28;20104;-58
2022/02/27 01:51:29;;;;;;;3.95;2.53;;;;;;;7.38;44.02;102298.56;5114535;28;20494;-58
2022/02/27 01:53:55;;;;;;;3.28;2.10;;;;;;;7.39;43.87;102300.28;5114022;28;20066;-58
2022/02/27 01:56:22;;;;;;;4.47;2.30;;;;;;;7.40;43.82;102290.69;5114607;28;20056;-58
2022/02/27 01:58:49;;;;;;;4.43;2.60;;;;;;;7.32;43.92;102286.44;5114223;28;20101;-58
2022/02/27 02:01:16;;;;;;;2.47;2.10;;;;;;;7.32;43.75;102293.44;5113310;28;20043;-59
2022/02/27 02:03:42;;;;;;;5.10;2.67;;;;;;;7.27;43.88;102290.91;5112670;28;20090;-58
2022/02/27 02:06:10;;;;;;;3.55;2.17;;;;;;;7.22;43.79;102287.50;5114312;28;20040;-58
2022/02/27 02:08:37;;;;;;;3.30;2.20;;;;;;;7.20;43.65;102284.09;5114167;28;20043;-58
2022/02/27 02:11:04;;;;;;;5.40;2.00;;;;;;;7.20;43.49;102278.88;5113797;28;20079;-58
2022/02/27 02:13:32;;;;;;;3.50;1.80;;;;;;;7.20;43.16;102281.47;5113918;28;20055;-59
2022/02/27 02:15:59;;;;;;;2.38;1.80;;;;;;;7.21;42.76;102287.53;5113724;28;20047;-58
2022/02/27 02:18:26;;;;;;;3.60;1.52;;;;;;;7.23;42.35;102283.16;5114032;28;20549;-58
2022/02/27 02:20:52;;;;;;;3.05;1.13;;;;;;;7.20;42.42;102276.25;5113153;28;20083;-60
2022/02/27 02:23:19;;;;;;;1.77;1.23;;;;;;;7.23;42.03;102275.34;5112699;28;20051;-58
2022/02/27 02:25:49;;;;;;;1.40;1.00;;;;;;;7.22;41.24;102277.06;5113895;28;20048;-58
2022/02/27 02:28:16;;;;;;;1.63;1.02;;;;;;;7.26;40.63;102281.38;5113781;28;20411;-59
2022/02/27 02:30:42;;;;;;;1.83;0.93;;;;;;;7.29;40.14;102276.06;5113628;28;20051;-58
2022/02/27 02:33:09;;;;;;;1.55;0.90;;;;;;;7.28;39.69;102274.34;5112035;28;20050;-58
2022/02/27 02:35:35;;;;;;;1.23;1.02;;;;;;;7.28;39.32;102276.97;5106522;28;20105;-58
2022/02/27 02:38:02;;;;;;;4.00;1.10;;;;;;;7.29;39.18;102275.22;5113168;28;20047;-58
2022/02/27 02:40:28;;;;;;;1.83;1.17;;;;;;;7.27;38.83;102272.63;5103001;27;20372;-58
2022/02/27 02:42:55;;;;;;;2.40;1.08;;;;;;;7.25;38.70;102277.03;5113592;28;20039;-58
2022/02/27 02:45:22;;;;;;;1.55;0.80;;;;;;;7.22;38.81;102268.38;5098869;28;20110;-58
2022/02/27 02:47:55;;;;;;;1.73;1.00;;;;;;;7.19;38.52;102275.38;5112394;28;20434;-58
2022/02/27 02:50:23;;;;;;;2.65;1.23;;;;;;;7.12;38.57;102265.94;5107181;28;20052;-59
2022/02/27 02:52:49;;;;;;;2.22;1.05;;;;;;;7.00;38.98;102264.38;5098948;28;20039;-58
2022/02/27 02:55:19;;;;;;;3.13;1.15;;;;;;;6.93;38.91;102269.75;5106520;28;20051;-59
2022/02/27 02:57:46;;;;;;;1.88;0.95;;;;;;;6.88;38.89;102271.56;5111651;28;20040;-58
2022/02/27 03:00:13;;;;;;;2.33;1.25;;;;;;;6.84;38.87;102265.53;5113186;28;20445;-58
2022/02/27 03:02:40;;;;;;;3.00;1.60;;;;;;;6.75;39.09;102263.09;5104575;28;20071;-58
2022/02/27 03:05:07;;;;;;;4.38;1.35;;;;;;;6.70;39.24;102261.41;5109117;28;20444;-59
2022/02/27 03:07:35;;;;;;;4.07;1.85;;;;;;;6.66;39.43;102259.72;5113024;28;20044;-58
2022/02/27 03:10:08;;;;;;;3.10;1.50;;;;;;;6.59;39.58;102259.84;5112829;28;20484;-58
2022/02/27 03:12:36;;;;;;;3.15;1.70;;;;;;;6.57;39.78;102256.41;5106323;28;20089;-58
2022/02/27 03:15:06;;;;;;;6.75;1.98;;;;;;;6.56;39.98;102255.53;5109112;28;20055;-58
2022/02/27 03:17:32;;;;;;;4.13;1.80;;;;;;;6.49;40.00;102254.78;5105764;28;20040;-58
2022/02/27 03:19:59;;;;;;;3.33;1.92;;;;;;;6.42;40.44;102258.34;5108662;28;20458;-58
2022/02/27 03:22:25;;;;;;;4.13;2.10;;;;;;;6.42;40.42;102250.53;5107343;28;20056;-58
2022/02/27 03:24:52;;;;;;;3.72;1.80;;;;;;;6.33;40.86;102240.25;5106538;28;20096;-58
2022/02/27 03:27:19;;;;;;;5.00;1.85;;;;;;;6.30;41.00;102243.75;5108876;28;20090;-58
2022/02/27 03:29:45;;;;;;;2.85;1.70;;;;;;;6.24;41.34;102240.38;5104898;28;20043;-58
2022/02/27 03:32:12;;;;;;;3.42;2.10;;;;;;;6.24;41.64;102254.25;5108869;28;20047;-58
2022/02/27 03:34:39;;;;;;;2.47;1.58;;;;;;;6.19;41.83;102243.03;5104776;28;20492;-58
2022/02/27 03:37:06;;;;;;;4.10;1.92;;;;;;;6.15;41.83;102246.59;5108942;28;20051;-57
2022/02/27 03:39:32;;;;;;;2.70;1.92;;;;;;;6.12;42.01;102249.22;5106095;28;20400;-58
2022/02/27 03:41:59;;;;;;;4.72;1.90;;;;;;;6.07;42.32;102249.31;5107528;28;20411;-57
2022/02/27 03:44:25;;;;;;;3.88;2.70;;;;;;;5.96;42.56;102246.78;5101282;28;20124;-58
2022/02/27 03:46:52;;;;;;;3.10;1.83;;;;;;;5.98;42.48;102247.69;5105331;28;20078;-58
2022/02/27 03:49:19;;;;;;;4.22;2.13;;;;;;;5.97;42.62;102252.88;5112397;28;20082;-57
2022/02/27 03:51:46;;;;;;;3.60;1.92;;;;;;;5.96;42.63;102249.38;5112197;28;20096;-57
2022/02/27 03:54:17;;;;;;;2.85;1.90;;;;;;;5.93;42.94;102246.84;5112065;28;20089;-57
2022/02/27 03:56:44;;;;;;;4.70;2.13;;;;;;;5.91;43.28;102252.94;5112242;28;20407;-57
2022/02/27 03:59:11;;;;;;;4.97;2.10;;;;;;;5.86;43.31;102253.84;5112347;28;20043;-58
2022/02/27 04:01:38;;;;;;;4.32;2.35;;;;;;;5.82;43.59;102251.31;5110662;28;20496;-58
2022/02/27 04:04:05;;;;;;;4.03;2.30;;;;;;;5.79;43.69;102252.22;5107513;28;20047;-57
2022/02/27 04:06:32;;;;;;;3.83;2.15;;;;;;;5.80;43.63;102246.13;5108822;28;20051;-58
2022/02/27 04:08:59;;;;;;;3.55;2.45;;;;;;;5.83;43.96;102245.25;5108992;28;20502;-58
2022/02/27 04:11:25;;;;;;;3.50;2.15;;;;;;;5.80;44.03;102245.25;5108711;28;20514;-57
2022/02/27 04:13:52;;;;;;;4.55;2.00;;;;;;;5.81;43.94;102250.44;5108615;28;20056;-58
2022/02/27 04:16:22;;;;;;;4.20;2.20;;;;;;;5.78;44.00;102250.50;5106863;28;20144;-58
2022/02/27 04:18:50;;;;;;;4.60;2.05;;;;;;;5.81;44.14;102258.25;5108681;28;20047;-57
2022/02/27 04:21:16;;;;;;;4.22;2.10;;;;;;;5.79;44.03;102253.94;5094301;28;20115;-57
2022/02/27 04:23:43;;;;;;;3.95;2.30;;;;;;;5.75;44.11;102257.47;5110446;28;20097;-57
2022/02/27 04:26:09;;;;;;;3.03;1.50;;;;;;;5.79;44.00;102243.53;5112474;28;20488;-58
2022/02/27 04:28:36;;;;;;;4.00;1.90;;;;;;;5.75;43.73;102260.09;5112790;28;20097;-57
2022/02/27 04:31:03;;;;;;;2.83;2.00;;;;;;;5.75;43.79;102260.09;5112660;28;20054;-57
2022/02/27 04:33:29;;;;;;;2.25;1.50;;;;;;;5.77;43.85;102259.19;5100888;27;20092;-58
2022/02/27 04:35:56;;;;;;;2.70;1.48;;;;;;;5.72;43.93;102259.22;5112858;28;20044;-57
2022/02/27 04:38:23;;;;;;;3.33;1.50;;;;;;;5.72;43.72;102258.38;5112091;28;20101;-57
2022/02/27 04:40:49;;;;;;;3.28;1.70;;;;;;;5.69;43.74;102261.03;5112312;28;20039;-58
2022/02/27 04:43:16;;;;;;;2.33;1.48;;;;;;;5.61;43.96;102262.84;5112412;28;20043;-58
2022/02/27 04:45:43;;;;;;;2.42;1.20;;;;;;;5.55;43.75;102267.25;5097844;28;20043;-58
2022/02/27 04:48:09;;;;;;;2.35;1.20;;;;;;;5.54;43.39;102267.28;5112656;28;20047;-58
2022/02/27 04:50:36;;;;;;;2.92;1.10;;;;;;;5.53;43.37;102270.75;5109428;27;20055;-58
2022/02/27 04:53:03;;;;;;;3.25;1.00;;;;;;;5.53;43.25;102271.59;5094287;28;20510;-57
2022/02/27 04:55:30;;;;;;;1.20;1.00;;;;;;;5.54;42.64;102270.72;5112382;28;20436;-57
2022/02/27 04:57:56;;;;;;;1.70;0.85;;;;;;;5.54;42.18;102270.72;5112171;28;20442;-57
2022/02/27 05:00:23;;;;;;;2.92;0.85;;;;;;;5.56;41.89;102268.09;5112274;28;20044;-58
2022/02/27 05:02:50;;;;;;;2.80;1.00;;;;;;;5.50;42.08;102263.81;5111764;28;20069;-58
2022/02/27 05:05:17;;;;;;;2.22;0.90;;;;;;;5.52;41.84;102267.28;5101531;28;20051;-58
2022/02/27 05:07:43;;;;;;;2.35;1.00;;;;;;;5.51;41.85;102268.16;5108796;28;20055;-57
2022/02/27 05:10:10;;;;;;;1.70;1.00;;;;;;;5.45;41.71;102268.22;5112016;28;20052;-57
2022/02/27 05:12:40;;;;;;;1.65;1.00;;;;;;;5.43;41.84;102274.31;5111372;28;20048;-58
2022/02/27 05:15:07;;;;;;;2.03;0.85;;;;;;;5.38;41.85;102275.25;5111713;28;20104;-58
2022/02/27 05:17:35;;;;;;;3.42;1.08;;;;;;;5.36;41.93;102271.78;5112058;28;20051;-57
2022/02/27 05:20:06;;;;;;;2.85;1.20;;;;;;;5.35;41.79;102272.66;5111834;28;20051;-57
2022/02/27 05:22:33;;;;;;;1.15;0.90;;;;;;;5.34;41.99;102273.53;5109554;28;20101;-57
2022/02/27 05:25:00;;;;;;;2.42;1.05;;;;;;;5.33;41.89;102278.75;5111668;28;20115;-57
2022/02/27 05:27:27;;;;;;;1.25;0.90;;;;;;;5.30;41.84;102282.25;5111606;28;20483;-57
2022/02/27 05:29:53;;;;;;;2.13;1.10;;;;;;;5.28;41.60;102281.41;5111767;28;20058;-57
2022/02/27 05:32:20;;;;;;;2.38;1.80;;;;;;;5.33;41.83;102278.75;5111786;28;20942;-58
2022/02/27 05:34:46;;;;;;;3.03;1.48;;;;;;;5.30;41.87;102284.84;5111114;28;20101;-57
2022/02/27 05:37:18;;;;;;;1.73;1.30;;;;;;;5.33;41.97;102287.44;5111578;28;20052;-57
2022/02/27 05:39:46;;;;;;;3.03;1.30;;;;;;;5.30;42.33;102286.59;5103917;28;20043;-58
2022/02/27 05:42:13;;;;;;;3.08;1.08;;;;;;;5.29;42.43;102295.28;5094497;28;20047;-58
2022/02/27 05:44:39;;;;;;;2.13;1.30;;;;;;;5.32;42.54;102290.91;5093079;28;20040;-57
2022/02/27 05:47:06;;;;;;;3.85;1.45;;;;;;;5.28;42.65;102289.22;5106105;28;20094;-57
2022/02/27 05:49:33;;;;;;;1.90;1.10;;;;;;;5.32;43.01;102296.13;5099406;28;20044;-57
2022/02/27 05:52:00;;;;;;;2.75;1.50;;;;;;;5.31;42.87;102288.34;5104574;28;20519;-58
2022/02/27 05:54:26;;;;;;;2.97;1.92;;;;;;;5.37;42.85;102298.66;5109184;28;20097;-58
2022/02/27 05:56:53;;;;;;;4.55;1.95;;;;;;;5.44;42.86;102299.50;5111140;28;20043;-58
2022/02/27 05:59:20;;;;;;;5.05;1.77;;;;;;;5.45;42.66;102304.69;5110824;28;20428;-58
2022/02/27 06:01:55;;;;;;;2.85;1.70;;;;;;;5.46;42.26;102303.81;5111186;28;20048;-58
2022/02/27 06:04:36;;;;;;;2.35;1.60;;;;;;;5.45;42.09;102304.69;5110554;28;20128;-58
2022/02/27 06:07:08;;;;;;;3.08;1.50;;;;;;;5.48;41.97;102312.44;5110487;28;20430;-58
2022/02/27 06:09:34;;;;;;;3.53;1.50;;;;;;;5.50;41.72;102310.69;5110721;28;20042;-58
2022/02/27 06:12:01;;;;;;;3.35;1.73;;;;;;;5.50;41.55;102315.06;5099560;27;20097;-58
2022/02/27 06:14:28;;;;;;;2.00;1.23;;;;;;;5.52;41.57;102311.56;5102997;28;20451;-59
2022/02/27 06:16:56;;;;;;;2.10;1.42;;;;;;;5.52;41.15;102319.38;5106607;28;20059;-58
2022/02/27 06:19:23;;;;;;;4.55;1.45;;;;;;;5.57;40.81;102319.28;5101955;28;20035;-57
2022/02/27 06:21:49;;;;;;;2.03;1.25;;;;;;;5.59;40.15;102320.16;5088271;28;20043;-58
2022/02/27 06:24:16;;;;;;;3.90;0.98;;;;;;;5.62;39.94;102321.88;5102739;28;20036;-58
2022/02/27 06:26:43;;;;;;;2.50;1.05;;;;;;;5.61;39.53;102326.22;5104414;28;20445;-61
2022/02/27 06:29:09;;;;;;;2.80;0.80;;;;;;;5.65;39.23;102321.81;5095091;28;20085;-58
2022/02/27 06:31:36;;;;;;;2.78;0.88;;;;;;;5.67;38.77;102336.56;5098305;28;20043;-57
2022/02/27 06:34:03;;;;;;;1.83;1.10;;;;;;;5.67;38.32;102330.50;5096567;28;20044;-58
2022/02/27 06:36:29;;;;;;;1.63;0.95;;;;;;;5.69;38.30;102334.81;5096495;28;20044;-58
2022/02/27 06:38:56;;;;;;;1.42;0.70;;;;;;;5.66;37.71;102340.06;5098108;28;20456;-57
2022/02/27 06:41:26;;;;;;;1.67;0.60;;;;;;;5.72;37.39;102342.56;5094957;28;20048;-58
2022/02/27 06:43:52;;;;;;;2.30;1.00;;;;;;;5.75;37.24;102349.50;5093003;28;20048;-58
2022/02/27 06:46:22;;;;;;;1.70;1.20;;;;;;;5.76;37.12;102352.97;5102623;28;20048;-58
2022/02/27 06:48:49;;;;;;;2.67;1.15;;;;;;;5.81;37.10;102356.41;5096353;28;20079;-57
2022/02/27 06:51:15;;;;;;;2.30;1.27;;;;;;;5.83;37.09;102360.72;5110534;28;20121;-58
2022/02/27 06:53:43;;;;;;;2.53;1.45;;;;;;;5.81;37.33;102362.47;5102914;28;20055;-59
2022/02/27 06:56:09;;;;;;;2.65;1.30;;;;;;;5.93;37.59;102360.59;5109400;28;20476;-57
2022/02/27 06:58:36;;;;;;;2.50;1.42;;;;;;;5.99;37.53;102365.78;5109914;28;20479;-57
2022/02/27 07:01:02;;;;;;;1.67;1.00;;;;;;;6.03;37.72;102372.69;5108092;28;20047;-58
2022/02/27 07:03:29;;;;;;;2.25;1.08;;;;;;;6.16;37.38;102373.44;5104146;28;20084;-57
2022/02/27 07:05:57;;;;;;;4.70;1.25;;;;;;;6.28;37.42;102373.25;5105632;28;20097;-58
2022/02/27 07:08:23;;;;;;;2.28;1.33;;;;;;;6.37;37.06;102380.97;5109857;28;20092;-57
2022/02/27 07:10:50;;;;;;;2.70;1.45;;;;;;;6.51;36.78;102380.81;5109449;28;20481;-57
2022/02/27 07:13:16;;;;;;;2.28;1.40;;;;;;;6.63;36.41;102389.34;5109626;28;20054;-58
2022/02/27 07:15:43;;;;;;;2.97;1.85;;;;;;;6.77;36.41;102386.56;5109371;28;20052;-58
2022/02/27 07:18:11;;;;;;;5.30;2.00;;;;;;;6.93;36.07;102393.28;5101216;28;20082;-58
2022/02/27 07:20:38;;;;;;;3.15;2.13;;;;;;;7.11;35.69;102394.75;5109645;28;20047;-57
2022/02/27 07:23:04;;;;;;;4.80;1.50;;;;;;;7.27;35.57;102390.13;5109056;28;20061;-58
2022/02/27 07:25:31;;;;;;;1.98;1.30;;;;;;;7.57;35.01;102394.84;5109315;28;20112;-58
2022/02/27 07:27:57;;;;;;;3.63;1.52;;;;;;;7.58;35.26;102391.34;5109434;28;20047;-57
2022/02/27 07:30:24;;;;;;;2.00;1.20;;;;;;;7.85;34.99;102395.25;5109400;28;20047;-58
2022/02/27 07:32:51;;;;;;;3.17;1.10;;;;;;;8.16;34.54;102397.25;5109144;28;20133;-58
2022/02/27 07:35:19;;;;;;;2.63;1.10;;;;;;;8.34;34.33;102399.50;5096822;28;20051;-58
2022/02/27 07:37:46;;;;;;;1.48;0.80;;;;;;;8.53;34.19;102407.00;5094418;28;20547;-59
2022/02/27 07:40:13;;;;;;;2.15;1.27;;;;;;;8.73;34.03;102401.31;5107660;28;20043;-58
2022/02/27 07:42:39;;;;;;;3.13;1.60;;;;;;;8.93;33.76;102400.88;5104163;28;20039;-58
2022/02/27 07:45:07;;;;;;;3.75;1.50;;;;;;;9.10;33.51;102397.88;5096400;28;20105;-58
2022/02/27 07:47:34;;;;;;;2.83;1.30;;;;;;;9.25;33.28;102398.41;5107681;28;20055;-58
2022/02/27 07:50:00;;;;;;;2.15;1.20;;;;;;;9.29;33.21;102400.91;5109021;28;20073;-58
2022/02/27 07:52:27;;;;;;;2.42;1.38;;;;;;;9.34;33.20;102400.78;5107896;28;20043;-59
2022/02/27 07:54:54;;;;;;;102.35;47.20;;;;;;;9.28;33.25;102400.94;5108437;28;20036;-58
2022/02/27 07:57:20;;;;;;;25.02;14.00;;;;;;;9.43;33.07;102402.31;5108564;28;20055;-57
2022/02/27 07:59:47;;;;;;;66.18;33.60;;;;;;;9.54;32.78;102402.91;5108658;28;20453;-58
2022/02/27 08:02:14;;;;;;;57.13;32.90;;;;;;;9.67;32.74;102395.59;5109041;28;20495;-58
2022/02/27 08:04:41;;;;;;;16.45;8.98;;;;;;;9.86;32.54;102395.13;5108783;28;20085;-58
2022/02/27 08:07:07;;;;;;;22.85;12.60;;;;;;;10.05;32.02;102398.94;5104230;28;20044;-58
2022/02/27 08:09:34;;;;;;;35.63;18.85;;;;;;;9.97;32.17;102401.78;5106523;28;20044;-57
2022/02/27 08:12:01;;;;;;;18.15;10.38;;;;;;;9.96;32.13;102396.59;5108338;28;20048;-58
2022/02/27 08:14:30;;;;;;;16.20;9.98;;;;;;;10.16;31.80;102406.53;5108689;28;20047;-58
2022/02/27 08:16:56;;;;;;;9.18;5.47;;;;;;;10.45;31.27;102399.63;5108778;28;20097;-58
2022/02/27 08:19:23;;;;;;;11.35;7.45;;;;;;;10.69;30.92;102402.41;5108483;28;20043;-58
2022/02/27 08:21:50;;;;;;;6.72;4.57;;;;;;;11.02;30.29;102399.63;5108359;28;20435;-58
2022/02/27 08:24:16;;;;;;;7.30;4.68;;;;;;;11.29;29.76;102397.88;5101240;28;20047;-58
2022/02/27 08:26:43;;;;;;;14.93;10.55;;;;;;;11.50;29.38;102392.81;5108348;28;20416;-58
2022/02/27 08:29:10;;;;;;;24.98;15.88;;;;;;;11.69;28.79;102393.03;5108561;28;20096;-58
2022/02/27 08:31:40;;;;;;;28.85;18.42;;;;;;;11.85;28.15;102385.47;5108391;28;20088;-59
2022/02/27 08:34:09;;;;;;;16.15;10.13;;;;;;;12.02;27.87;102387.53;5108423;28;20047;-58
2022/02/27 08:36:37;;;;;;;18.98;12.60;;;;;;;12.09;27.63;102384.63;5108410;28;20044;-59
2022/02/27 08:39:04;;;;;;;15.27;9.60;;;;;;;12.35;27.17;102393.31;5108335;28;20051;-58
2022/02/27 08:41:31;;;;;;;33.53;21.55;;;;;;;12.46;26.88;102386.81;5102362;28;20101;-58
2022/02/27 08:44:02;;;;;;;5.95;3.40;;;;;;;12.54;26.68;102382.97;5101954;28;20052;-58
2022/02/27 08:46:29;;;;;;;11.70;6.53;;;;;;;12.72;25.75;102385.78;5098404;28;20096;-58
2022/02/27 08:48:56;;;;;;;8.68;6.78;;;;;;;12.90;25.35;102390.31;5107968;28;20549;-59
2022/02/27 08:51:22;;;;;;;6.03;5.07;;;;;;;13.04;24.97;102381.88;5108381;28;20051;-58
2022/02/27 08:53:49;;;;;;;4.95;2.70;;;;;;;13.25;25.02;102389.81;5107915;28;20047;-61
2022/02/27 08:56:16;;;;;;;4.60;2.58;;;;;;;13.23;24.91;102389.03;5108274;28;20059;-61
2022/02/27 08:58:43;;;;;;;2.20;1.23;;;;;;;13.26;24.60;102382.75;5107046;28;20446;-58
2022/02/27 09:01:10;;;;;;;1.95;0.90;;;;;;;13.47;23.86;102383.66;5100295;28;20492;-63
2022/02/27 09:03:37;;;;;;;2.15;0.73;;;;;;;13.74;23.52;102378.09;5089148;28;20098;-60
2022/02/27 09:06:04;;;;;;;13.10;6.47;;;;;;;13.90;22.58;102379.16;5092710;28;20577;-59
2022/02/27 09:08:31;;;;;;;1.98;0.52;;;;;;;14.13;22.22;102380.78;5089291;28;20044;-63
2022/02/27 09:10:57;;;;;;;3.20;2.10;;;;;;;14.29;21.79;102377.44;5098572;28;20109;-60
2022/02/27 09:13:24;;;;;;;59.78;35.95;;;;;;;14.42;21.58;102383.00;5096422;28;20151;-65
2022/02/27 09:15:51;;;;;;;9.70;6.88;;;;;;;14.66;21.57;102376.56;5095872;27;20131;-59
2022/02/27 09:18:19;;;;;;;2.10;1.00;;;;;;;14.91;20.81;102379.84;5091460;28;20051;-59
2022/02/27 09:20:48;;;;;;;2.90;1.90;;;;;;;15.00;20.88;102382.03;5091281;28;20050;-59
2022/02/27 09:23:15;;;;;;;24.45;13.18;;;;;;;15.05;20.45;102372.06;5090806;28;20450;-59
2022/02/27 09:25:41;;;;;;;2.80;1.55;;;;;;;15.25;19.95;102371.09;5097469;28;20036;-59
2022/02/27 09:28:28;;;;;;;1.50;0.90;;;;;;;15.46;19.90;102374.41;5095848;28;20087;-59
2022/02/27 09:30:55;;;;;;;2.70;1.48;;;;;;;15.62;19.47;102376.28;5089884;27;20116;-60
2022/02/27 09:33:22;;;;;;;1.73;0.50;;;;;;;15.89;19.37;102376.66;5096068;28;20606;-59
2022/02/27 09:35:49;;;;;;;1.17;0.60;;;;;;;16.05;19.00;102375.81;5099801;28;20089;-59
2022/02/27 09:38:16;;;;;;;1.33;0.50;;;;;;;16.28;18.58;102372.78;5094234;28;20047;-59
2022/02/27 09:40:44;;;;;;;2.70;2.00;;;;;;;16.43;18.14;102379.06;5095744;28;20227;-59
2022/02/27 09:43:12;;;;;;;0.68;0.32;;;;;;;16.61;17.99;102363.91;5096272;28;20492;-59
2022/02/27 09:45:39;;;;;;;1.20;0.50;;;;;;;16.77;17.63;102361.25;5096975;27;20040;-61
2022/02/27 09:48:06;;;;;;;21.10;10.57;;;;;;;16.78;17.64;102355.00;5102689;28;20121;-60
2022/02/27 09:50:34;;;;;;;1.60;0.50;;;;;;;17.01;17.46;102352.84;5094791;28;20080;-59
2022/02/27 09:53:01;;;;;;;0.88;0.68;;;;;;;17.17;17.10;102350.16;5094363;28;20312;-61
2022/02/27 09:55:27;;;;;;;1.48;0.70;;;;;;;17.37;17.33;102351.63;5105278;28;20097;-62
2022/02/27 09:57:56;;;;;;;0.82;0.55;;;;;;;17.52;16.90;102359.59;5093059;28;20051;-58
2022/02/27 10:00:23;;;;;;;1.13;0.60;;;;;;;17.51;16.71;102361.41;5093513;28;20117;-59
2022/02/27 10:03:13;;;;;;;1.48;0.77;;;;;;;17.70;17.00;102352.31;5096227;28;20069;-60
2022/02/27 10:05:41;;;;;;;1.63;1.10;;;;;;;17.65;17.07;102359.72;5093206;28;20044;-58
2022/02/27 10:08:08;;;;;;;10.98;1.80;;;;;;;17.85;18.34;102354.06;5093171;28;20064;-59
2022/02/27 10:10:37;;;;;;;14.55;2.53;;;;;;;18.06;20.10;102365.16;5096040;28;20052;-61
2022/02/27 10:13:06;;;;;;;7.78;1.10;;;;;;;18.23;21.37;102365.91;5091879;28;20109;-61
2022/02/27 10:15:34;;;;;;;9.23;1.10;;;;;;;18.38;22.18;102361.41;5094992;28;20052;-58
2022/02/27 10:18:17;;;;;;;9.05;2.25;;;;;;;18.48;23.11;102353.72;5095212;28;20050;-60
2022/02/27 10:20:44;;;;;;;4.03;1.63;;;;;;;18.55;22.70;102362.97;5107448;28;20130;-60
2022/02/27 10:23:14;;;;;;;7.88;1.63;;;;;;;18.63;22.08;102355.38;5108380;28;20055;-59
2022/02/27 10:25:41;;;;;;;10.93;5.32;;;;;;;18.71;22.00;102339.75;5109885;28;20043;-60
2022/02/27 10:28:07;;;;;;;3.58;1.40;;;;;;;18.80;21.76;102342.78;5108594;28;20048;-61
2022/02/27 10:30:37;;;;;;;4.55;1.10;;;;;;;18.76;21.80;102337.63;5101870;28;20093;-63
2022/02/27 10:33:09;;;;;;;6.50;1.30;;;;;;;18.92;21.20;102339.34;5091188;28;20468;-62
2022/02/27 10:35:47;;;;;;;3.15;1.40;;;;;;;19.02;20.97;102335.09;5093648;28;20040;-60
2022/02/27 10:38:56;;;;;;;10.75;3.72;;;;;;;19.11;21.24;102336.28;5093320;28;20117;-61
2022/02/27 10:41:23;;;;;;;15.13;11.93;;;;;;;19.12;20.67;102324.66;5090360;28;20044;-64
2022/02/27 10:43:49;;;;;;;9.57;7.45;;;;;;;18.97;19.57;102328.38;5093644;28;20118;-63
2022/02/27 10:46:20;;;;;;;38.80;27.23;;;;;;;18.65;19.18;102318.91;5097939;28;20618;-61
2022/02/27 10:48:50;;;;;;;13.82;8.73;;;;;;;18.71;18.55;102321.13;5109528;28;20051;-60
2022/02/27 10:51:17;;;;;;;28.15;16.98;;;;;;;18.84;17.95;102315.00;5090697;28;20048;-61
2022/02/27 10:53:46;;;;;;;21.25;15.23;;;;;;;19.04;17.62;102311.06;5090599;27;20080;-61
2022/02/27 10:56:17;;;;;;;67.70;44.83;;;;;;;19.14;17.27;102312.13;5090521;28;20048;-57
2022/02/27 10:58:48;;;;;;;9.75;6.78;;;;;;;19.28;16.82;102313.84;5090691;28;20051;-58
2022/02/27 11:01:26;;;;;;;114.55;70.68;;;;;;;19.36;16.24;102314.19;5091539;28;20555;-61
2022/02/27 11:03:56;;;;;;;28.23;17.90;;;;;;;19.49;15.86;102313.31;5090639;28;20506;-63
2022/02/27 11:06:23;;;;;;;7.85;5.10;;;;;;;19.61;15.82;102306.28;5091024;28;20048;-61
2022/02/27 11:08:50;;;;;;;10.45;7.05;;;;;;;19.69;15.67;102295.94;5090117;28;20508;-62
2022/02/27 11:11:17;;;;;;;2.75;1.60;;;;;;;19.73;15.62;102295.63;5091199;28;20057;-60
2022/02/27 11:13:45;;;;;;;10.82;6.70;;;;;;;19.65;14.88;102291.78;5072385;28;20056;-59
2022/02/27 11:16:15;;;;;;;3.72;1.30;;;;;;;19.87;15.06;102289.34;5091439;28;20044;-60
2022/02/27 11:18:43;;;;;;;1.65;1.33;;;;;;;20.04;14.76;102289.94;5090320;28;20072;-60
2022/02/27 11:21:12;;;;;;;3.03;2.08;;;;;;;20.10;14.67;102276.16;5090845;28;20079;-60
2022/02/27 11:23:40;;;;;;;22.50;16.83;;;;;;;20.12;14.60;102276.88;5089837;28;20065;-61
2022/02/27 11:26:07;;;;;;;7.35;5.00;;;;;;;20.06;14.80;102277.34;5095027;28;20055;-60
2022/02/27 11:28:36;;;;;;;13.75;9.00;;;;;;;20.08;14.49;102263.91;5090980;28;20047;-60
2022/02/27 11:31:05;;;;;;;4.90;2.97;;;;;;;19.85;14.81;102269.09;5090051;28;20085;-60